CWF weather

Chennault International Airport
Lake Charles, Louisiana, United States

Public forecast

Using degrees Fahrenheit for public forecast. Weather courtesy of forecast.io.

METAR (pilot weather report)

Retrieved 2019/06/27 11:00 UTC (40 minutes ago):

KCWF 271100Z 00000KT 10SM SKC 24/24 A3015

TAF (pilot weather forecast)

Closest forecast is Lake Charles Regional Airport, 6.6 nm (12.1 km) SW. Retrieved 2019/06/27 06:22 UTC (5 hours ago):

TAF KLCH 270520Z 2706/2806 VRB04KT P6SM SCT250 FM271500 15007KT P6SM SCT035